sensor_id;sensor_type;location;lat;lon;timestamp;P1;durP1;ratioP1;P2;durP2;ratioP2
74371;SDS011;62885;51.374;6.170;2023-02-01T00:02:23;14.32;;;4.93;;
74371;SDS011;62885;51.374;6.170;2023-02-01T00:04:48;13.27;;;5.22;;
74371;SDS011;62885;51.374;6.170;2023-02-01T00:07:14;12.45;;;4.45;;
74371;SDS011;62885;51.374;6.170;2023-02-01T00:09:39;13.48;;;4.43;;
74371;SDS011;62885;51.374;6.170;2023-02-01T00:12:04;10.13;;;4.60;;
74371;SDS011;62885;51.374;6.170;2023-02-01T00:14:30;11.98;;;4.35;;
74371;SDS011;62885;51.374;6.170;2023-02-01T00:16:57;17.80;;;4.32;;
74371;SDS011;62885;51.374;6.170;2023-02-01T00:19:22;11.35;;;4.38;;
74371;SDS011;62885;51.374;6.170;2023-02-01T00:21:48;9.35;;;3.67;;
74371;SDS011;62885;51.374;6.170;2023-02-01T00:24:13;11.05;;;3.90;;
74371;SDS011;62885;51.374;6.170;2023-02-01T00:26:39;13.68;;;3.85;;
74371;SDS011;62885;51.374;6.170;2023-02-01T00:29:09;10.75;;;4.40;;
74371;SDS011;62885;51.374;6.170;2023-02-01T00:34:03;15.40;;;3.75;;
74371;SDS011;62885;51.374;6.170;2023-02-01T00:36:29;10.25;;;3.20;;
74371;SDS011;62885;51.374;6.170;2023-02-01T00:38:54;12.85;;;3.90;;
74371;SDS011;62885;51.374;6.170;2023-02-01T00:41:20;9.90;;;3.17;;
74371;SDS011;62885;51.374;6.170;2023-02-01T00:43:47;10.07;;;2.90;;
74371;SDS011;62885;51.374;6.170;2023-02-01T00:46:15;9.55;;;3.70;;
74371;SDS011;62885;51.374;6.170;2023-02-01T00:48:41;14.15;;;3.03;;
74371;SDS011;62885;51.374;6.170;2023-02-01T00:51:08;10.18;;;3.67;;
74371;SDS011;62885;51.374;6.170;2023-02-01T00:53:38;8.27;;;2.75;;
74371;SDS011;62885;51.374;6.170;2023-02-01T00:56:04;8.93;;;2.70;;
74371;SDS011;62885;51.374;6.170;2023-02-01T00:58:31;8.20;;;3.05;;
74371;SDS011;62885;51.374;6.170;2023-02-01T01:01:01;8.23;;;2.90;;
74371;SDS011;62885;51.374;6.170;2023-02-01T01:03:37;15.65;;;3.97;;
74371;SDS011;62885;51.374;6.170;2023-02-01T01:06:06;7.50;;;2.55;;
74371;SDS011;62885;51.374;6.170;2023-02-01T01:08:33;12.02;;;2.67;;
74371;SDS011;62885;51.374;6.170;2023-02-01T01:11:03;14.88;;;2.70;;
74371;SDS011;62885;51.374;6.170;2023-02-01T01:13:29;11.93;;;3.10;;
74371;SDS011;62885;51.374;6.170;2023-02-01T01:15:55;8.98;;;2.03;;
74371;SDS011;62885;51.374;6.170;2023-02-01T01:18:20;11.68;;;2.60;;
74371;SDS011;62885;51.374;6.170;2023-02-01T01:20:47;10.13;;;2.95;;
74371;SDS011;62885;51.374;6.170;2023-02-01T01:23:12;8.98;;;2.22;;
74371;SDS011;62885;51.374;6.170;2023-02-01T01:25:38;9.88;;;2.60;;
74371;SDS011;62885;51.374;6.170;2023-02-01T01:28:04;8.02;;;2.28;;
74371;SDS011;62885;51.374;6.170;2023-02-01T01:30:30;15.00;;;2.20;;
74371;SDS011;62885;51.374;6.170;2023-02-01T01:32:55;7.15;;;1.98;;
74371;SDS011;62885;51.374;6.170;2023-02-01T01:35:21;10.05;;;2.30;;
74371;SDS011;62885;51.374;6.170;2023-02-01T01:37:46;8.05;;;2.20;;
74371;SDS011;62885;51.374;6.170;2023-02-01T01:40:13;7.15;;;1.98;;
74371;SDS011;62885;51.374;6.170;2023-02-01T01:42:40;13.70;;;2.85;;
74371;SDS011;62885;51.374;6.170;2023-02-01T01:45:08;9.23;;;2.00;;
74371;SDS011;62885;51.374;6.170;2023-02-01T01:47:46;7.95;;;1.77;;
74371;SDS011;62885;51.374;6.170;2023-02-01T01:50:26;8.98;;;2.35;;
74371;SDS011;62885;51.374;6.170;2023-02-01T01:52:54;7.43;;;1.88;;
74371;SDS011;62885;51.374;6.170;2023-02-01T01:55:23;5.30;;;1.80;;
74371;SDS011;62885;51.374;6.170;2023-02-01T01:57:53;7.80;;;1.67;;
74371;SDS011;62885;51.374;6.170;2023-02-01T02:00:27;9.98;;;2.33;;
74371;SDS011;62885;51.374;6.170;2023-02-01T02:02:56;7.68;;;2.13;;
74371;SDS011;62885;51.374;6.170;2023-02-01T02:05:32;8.70;;;2.30;;
74371;SDS011;62885;51.374;6.170;2023-02-01T02:07:58;14.45;;;2.80;;
74371;SDS011;62885;51.374;6.170;2023-02-01T02:36:18;12.15;;;2.28;;
74371;SDS011;62885;51.374;6.170;2023-02-01T02:41:30;8.25;;;2.33;;
74371;SDS011;62885;51.374;6.170;2023-02-01T02:44:32;11.18;;;2.80;;
74371;SDS011;62885;51.374;6.170;2023-02-01T02:47:27;9.60;;;2.95;;
74371;SDS011;62885;51.374;6.170;2023-02-01T02:50:15;8.60;;;2.30;;
74371;SDS011;62885;51.374;6.170;2023-02-01T02:53:39;12.27;;;2.70;;
74371;SDS011;62885;51.374;6.170;2023-02-01T02:56:29;12.23;;;2.55;;
74371;SDS011;62885;51.374;6.170;2023-02-01T02:59:16;6.13;;;2.10;;
74371;SDS011;62885;51.374;6.170;2023-02-01T03:02:03;12.48;;;3.40;;
74371;SDS011;62885;51.374;6.170;2023-02-01T03:04:51;5.43;;;2.03;;
74371;SDS011;62885;51.374;6.170;2023-02-01T03:10:23;10.27;;;2.42;;
74371;SDS011;62885;51.374;6.170;2023-02-01T03:13:05;10.27;;;3.30;;
74371;SDS011;62885;51.374;6.170;2023-02-01T03:15:37;8.00;;;2.58;;
74371;SDS011;62885;51.374;6.170;2023-02-01T03:18:11;13.38;;;2.50;;
74371;SDS011;62885;51.374;6.170;2023-02-01T03:20:58;7.85;;;2.25;;
74371;SDS011;62885;51.374;6.170;2023-02-01T03:23:27;9.98;;;2.78;;
74371;SDS011;62885;51.374;6.170;2023-02-01T03:25:59;10.25;;;2.63;;
74371;SDS011;62885;51.374;6.170;2023-02-01T03:28:27;11.45;;;2.30;;
74371;SDS011;62885;51.374;6.170;2023-02-01T03:30:57;9.93;;;2.90;;
74371;SDS011;62885;51.374;6.170;2023-02-01T03:33:23;8.13;;;2.15;;
74371;SDS011;62885;51.374;6.170;2023-02-01T03:36:03;7.65;;;2.65;;
74371;SDS011;62885;51.374;6.170;2023-02-01T03:38:48;6.97;;;1.98;;
74371;SDS011;62885;51.374;6.170;2023-02-01T03:44:00;12.30;;;2.63;;
74371;SDS011;62885;51.374;6.170;2023-02-01T03:46:35;6.85;;;2.00;;
74371;SDS011;62885;51.374;6.170;2023-02-01T03:49:08;13.68;;;2.38;;
74371;SDS011;62885;51.374;6.170;2023-02-01T03:51:36;10.00;;;2.40;;
74371;SDS011;62885;51.374;6.170;2023-02-01T03:54:05;11.00;;;2.38;;
74371;SDS011;62885;51.374;6.170;2023-02-01T03:56:35;8.90;;;3.00;;
74371;SDS011;62885;51.374;6.170;2023-02-01T03:59:02;9.93;;;2.42;;
74371;SDS011;62885;51.374;6.170;2023-02-01T04:01:29;19.67;;;3.15;;
74371;SDS011;62885;51.374;6.170;2023-02-01T04:03:55;8.80;;;2.22;;
74371;SDS011;62885;51.374;6.170;2023-02-01T04:06:22;7.47;;;2.25;;
74371;SDS011;62885;51.374;6.170;2023-02-01T04:08:48;9.25;;;1.95;;
74371;SDS011;62885;51.374;6.170;2023-02-01T04:11:15;14.07;;;2.35;;
74371;SDS011;62885;51.374;6.170;2023-02-01T04:13:41;13.35;;;2.72;;
74371;SDS011;62885;51.374;6.170;2023-02-01T04:16:07;11.18;;;2.65;;
74371;SDS011;62885;51.374;6.170;2023-02-01T04:18:32;14.05;;;2.00;;
74371;SDS011;62885;51.374;6.170;2023-02-01T04:20:57;7.40;;;2.08;;
74371;SDS011;62885;51.374;6.170;2023-02-01T04:23:23;8.68;;;2.20;;
74371;SDS011;62885;51.374;6.170;2023-02-01T04:25:48;5.40;;;1.75;;
74371;SDS011;62885;51.374;6.170;2023-02-01T04:28:13;7.85;;;2.05;;
74371;SDS011;62885;51.374;6.170;2023-02-01T04:30:39;12.98;;;1.70;;
74371;SDS011;62885;51.374;6.170;2023-02-01T04:33:04;6.97;;;1.88;;
74371;SDS011;62885;51.374;6.170;2023-02-01T04:35:32;11.60;;;2.92;;
74371;SDS011;62885;51.374;6.170;2023-02-01T04:37:58;4.63;;;1.50;;
74371;SDS011;62885;51.374;6.170;2023-02-01T04:40:23;10.27;;;2.40;;
74371;SDS011;62885;51.374;6.170;2023-02-01T04:42:49;9.45;;;2.03;;
74371;SDS011;62885;51.374;6.170;2023-02-01T04:45:14;10.45;;;2.50;;
74371;SDS011;62885;51.374;6.170;2023-02-01T04:47:39;9.70;;;1.85;;
74371;SDS011;62885;51.374;6.170;2023-02-01T04:50:05;7.82;;;2.38;;
74371;SDS011;62885;51.374;6.170;2023-02-01T04:52:32;9.02;;;2.42;;
74371;SDS011;62885;51.374;6.170;2023-02-01T04:54:57;10.85;;;1.83;;
74371;SDS011;62885;51.374;6.170;2023-02-01T04:57:25;13.35;;;2.70;;
74371;SDS011;62885;51.374;6.170;2023-02-01T04:59:50;8.63;;;1.48;;
74371;SDS011;62885;51.374;6.170;2023-02-01T05:02:16;12.63;;;2.28;;
74371;SDS011;62885;51.374;6.170;2023-02-01T05:04:41;10.77;;;1.90;;
74371;SDS011;62885;51.374;6.170;2023-02-01T05:07:07;8.75;;;2.30;;
74371;SDS011;62885;51.374;6.170;2023-02-01T05:09:32;11.32;;;2.42;;
74371;SDS011;62885;51.374;6.170;2023-02-01T05:11:57;14.85;;;3.05;;
74371;SDS011;62885;51.374;6.170;2023-02-01T05:14:41;5.97;;;1.67;;
74371;SDS011;62885;51.374;6.170;2023-02-01T05:17:07;14.68;;;2.28;;
74371;SDS011;62885;51.374;6.170;2023-02-01T05:19:32;8.50;;;2.47;;
74371;SDS011;62885;51.374;6.170;2023-02-01T05:21:57;13.32;;;3.00;;
74371;SDS011;62885;51.374;6.170;2023-02-01T05:24:23;9.68;;;1.83;;
74371;SDS011;62885;51.374;6.170;2023-02-01T05:26:48;12.13;;;2.15;;
74371;SDS011;62885;51.374;6.170;2023-02-01T05:29:14;13.88;;;3.30;;
74371;SDS011;62885;51.374;6.170;2023-02-01T05:31:40;10.70;;;2.45;;
74371;SDS011;62885;51.374;6.170;2023-02-01T05:34:06;9.93;;;2.38;;
74371;SDS011;62885;51.374;6.170;2023-02-01T05:36:32;14.20;;;2.30;;
74371;SDS011;62885;51.374;6.170;2023-02-01T05:38:57;17.83;;;3.50;;
74371;SDS011;62885;51.374;6.170;2023-02-01T05:41:23;10.98;;;2.35;;
74371;SDS011;62885;51.374;6.170;2023-02-01T05:43:48;8.57;;;2.38;;
74371;SDS011;62885;51.374;6.170;2023-02-01T05:46:13;11.40;;;1.90;;
74371;SDS011;62885;51.374;6.170;2023-02-01T05:48:42;11.95;;;1.90;;
74371;SDS011;62885;51.374;6.170;2023-02-01T05:51:08;14.13;;;2.53;;
74371;SDS011;62885;51.374;6.170;2023-02-01T05:53:34;19.45;;;2.75;;
74371;SDS011;62885;51.374;6.170;2023-02-01T05:56:00;12.48;;;2.67;;
74371;SDS011;62885;51.374;6.170;2023-02-01T05:58:25;9.63;;;1.90;;
74371;SDS011;62885;51.374;6.170;2023-02-01T06:00:51;12.40;;;2.05;;
74371;SDS011;62885;51.374;6.170;2023-02-01T06:03:16;17.27;;;3.22;;
74371;SDS011;62885;51.374;6.170;2023-02-01T06:05:45;7.47;;;1.42;;
74371;SDS011;62885;51.374;6.170;2023-02-01T06:08:12;13.68;;;2.20;;
74371;SDS011;62885;51.374;6.170;2023-02-01T06:10:38;4.57;;;1.80;;
74371;SDS011;62885;51.374;6.170;2023-02-01T06:13:03;15.68;;;2.63;;
74371;SDS011;62885;51.374;6.170;2023-02-01T06:15:29;7.05;;;1.60;;
74371;SDS011;62885;51.374;6.170;2023-02-01T06:17:55;16.55;;;2.20;;
74371;SDS011;62885;51.374;6.170;2023-02-01T06:20:20;11.35;;;2.15;;
74371;SDS011;62885;51.374;6.170;2023-02-01T06:22:46;14.70;;;2.35;;
74371;SDS011;62885;51.374;6.170;2023-02-01T06:25:11;11.05;;;2.40;;
74371;SDS011;62885;51.374;6.170;2023-02-01T06:27:37;16.85;;;2.83;;
74371;SDS011;62885;51.374;6.170;2023-02-01T06:30:03;18.20;;;2.63;;
74371;SDS011;62885;51.374;6.170;2023-02-01T06:32:30;7.47;;;2.50;;
74371;SDS011;62885;51.374;6.170;2023-02-01T06:34:55;13.65;;;2.20;;
74371;SDS011;62885;51.374;6.170;2023-02-01T06:37:22;8.25;;;1.85;;
74371;SDS011;62885;51.374;6.170;2023-02-01T06:39:49;3.58;;;1.05;;
74371;SDS011;62885;51.374;6.170;2023-02-01T06:42:14;10.60;;;2.20;;
74371;SDS011;62885;51.374;6.170;2023-02-01T06:44:40;11.00;;;2.10;;
74371;SDS011;62885;51.374;6.170;2023-02-01T06:47:05;11.65;;;2.55;;
74371;SDS011;62885;51.374;6.170;2023-02-01T06:49:31;6.65;;;1.95;;
74371;SDS011;62885;51.374;6.170;2023-02-01T06:51:56;13.85;;;2.22;;
74371;SDS011;62885;51.374;6.170;2023-02-01T06:54:22;11.35;;;3.20;;
74371;SDS011;62885;51.374;6.170;2023-02-01T06:56:47;15.20;;;2.60;;
74371;SDS011;62885;51.374;6.170;2023-02-01T06:59:13;5.80;;;2.08;;
74371;SDS011;62885;51.374;6.170;2023-02-01T07:01:38;7.93;;;2.03;;
74371;SDS011;62885;51.374;6.170;2023-02-01T07:04:04;10.82;;;2.65;;
74371;SDS011;62885;51.374;6.170;2023-02-01T07:06:29;12.70;;;3.72;;
74371;SDS011;62885;51.374;6.170;2023-02-01T07:08:55;11.23;;;2.45;;
74371;SDS011;62885;51.374;6.170;2023-02-01T07:11:22;13.82;;;2.50;;
74371;SDS011;62885;51.374;6.170;2023-02-01T07:13:48;19.27;;;4.00;;
74371;SDS011;62885;51.374;6.170;2023-02-01T07:16:16;7.05;;;2.35;;
74371;SDS011;62885;51.374;6.170;2023-02-01T07:18:43;10.73;;;2.15;;
74371;SDS011;62885;51.374;6.170;2023-02-01T07:21:09;14.95;;;2.53;;
74371;SDS011;62885;51.374;6.170;2023-02-01T07:23:35;11.93;;;2.28;;
74371;SDS011;62885;51.374;6.170;2023-02-01T07:26:01;9.55;;;2.30;;
74371;SDS011;62885;51.374;6.170;2023-02-01T07:28:29;10.20;;;1.98;;
74371;SDS011;62885;51.374;6.170;2023-02-01T07:31:03;15.70;;;2.30;;
74371;SDS011;62885;51.374;6.170;2023-02-01T07:33:29;8.32;;;2.05;;
74371;SDS011;62885;51.374;6.170;2023-02-01T07:35:54;9.10;;;2.13;;
74371;SDS011;62885;51.374;6.170;2023-02-01T07:38:20;7.95;;;2.60;;
74371;SDS011;62885;51.374;6.170;2023-02-01T07:40:46;14.30;;;2.78;;
74371;SDS011;62885;51.374;6.170;2023-02-01T07:43:12;12.52;;;2.80;;
74371;SDS011;62885;51.374;6.170;2023-02-01T07:45:38;9.32;;;1.80;;
74371;SDS011;62885;51.374;6.170;2023-02-01T07:48:03;11.80;;;1.80;;
74371;SDS011;62885;51.374;6.170;2023-02-01T07:50:29;8.25;;;1.77;;
74371;SDS011;62885;51.374;6.170;2023-02-01T07:52:55;10.98;;;2.75;;
74371;SDS011;62885;51.374;6.170;2023-02-01T07:55:22;11.98;;;2.40;;
74371;SDS011;62885;51.374;6.170;2023-02-01T07:57:49;8.00;;;2.25;;
74371;SDS011;62885;51.374;6.170;2023-02-01T08:00:15;13.75;;;3.40;;
74371;SDS011;62885;51.374;6.170;2023-02-01T08:02:59;8.65;;;1.92;;
74371;SDS011;62885;51.374;6.170;2023-02-01T08:05:25;14.10;;;2.72;;
74371;SDS011;62885;51.374;6.170;2023-02-01T08:07:51;8.00;;;1.60;;
74371;SDS011;62885;51.374;6.170;2023-02-01T08:10:17;12.50;;;2.03;;
74371;SDS011;62885;51.374;6.170;2023-02-01T08:12:43;13.38;;;2.92;;
74371;SDS011;62885;51.374;6.170;2023-02-01T08:15:12;12.82;;;2.38;;
74371;SDS011;62885;51.374;6.170;2023-02-01T08:17:39;9.82;;;2.25;;
74371;SDS011;62885;51.374;6.170;2023-02-01T08:20:04;11.25;;;2.25;;
74371;SDS011;62885;51.374;6.170;2023-02-01T08:22:33;11.15;;;2.33;;
74371;SDS011;62885;51.374;6.170;2023-02-01T08:24:58;10.07;;;2.15;;
74371;SDS011;62885;51.374;6.170;2023-02-01T08:27:26;6.95;;;1.88;;
74371;SDS011;62885;51.374;6.170;2023-02-01T08:29:52;6.60;;;1.92;;
74371;SDS011;62885;51.374;6.170;2023-02-01T08:32:18;11.68;;;2.38;;
74371;SDS011;62885;51.374;6.170;2023-02-01T08:34:43;14.65;;;2.42;;
74371;SDS011;62885;51.374;6.170;2023-02-01T08:37:08;8.15;;;1.67;;
74371;SDS011;62885;51.374;6.170;2023-02-01T08:39:34;14.50;;;2.35;;
74371;SDS011;62885;51.374;6.170;2023-02-01T08:42:01;11.07;;;2.47;;
74371;SDS011;62885;51.374;6.170;2023-02-01T08:44:45;8.88;;;2.95;;
74371;SDS011;62885;51.374;6.170;2023-02-01T08:47:10;8.48;;;2.13;;
74371;SDS011;62885;51.374;6.170;2023-02-01T08:49:36;11.38;;;2.10;;
74371;SDS011;62885;51.374;6.170;2023-02-01T08:52:01;10.27;;;2.92;;
74371;SDS011;62885;51.374;6.170;2023-02-01T08:54:26;15.48;;;3.15;;
74371;SDS011;62885;51.374;6.170;2023-02-01T08:56:52;15.65;;;2.70;;
74371;SDS011;62885;51.374;6.170;2023-02-01T08:59:19;8.05;;;2.35;;
74371;SDS011;62885;51.374;6.170;2023-02-01T09:01:44;11.90;;;2.38;;
74371;SDS011;62885;51.374;6.170;2023-02-01T09:04:10;9.35;;;3.10;;
74371;SDS011;62885;51.374;6.170;2023-02-01T09:06:35;12.82;;;2.50;;
74371;SDS011;62885;51.374;6.170;2023-02-01T09:09:00;8.65;;;2.33;;
74371;SDS011;62885;51.374;6.170;2023-02-01T09:11:26;11.95;;;1.80;;
74371;SDS011;62885;51.374;6.170;2023-02-01T09:13:51;11.90;;;2.22;;
74371;SDS011;62885;51.374;6.170;2023-02-01T09:16:17;10.90;;;2.60;;
74371;SDS011;62885;51.374;6.170;2023-02-01T09:18:42;12.60;;;2.90;;
74371;SDS011;62885;51.374;6.170;2023-02-01T09:21:08;7.13;;;2.38;;
74371;SDS011;62885;51.374;6.170;2023-02-01T09:23:33;10.80;;;2.40;;
74371;SDS011;62885;51.374;6.170;2023-02-01T09:26:00;11.60;;;2.72;;
74371;SDS011;62885;51.374;6.170;2023-02-01T09:28:29;15.00;;;3.00;;
74371;SDS011;62885;51.374;6.170;2023-02-01T09:30:58;11.18;;;2.97;;
74371;SDS011;62885;51.374;6.170;2023-02-01T09:33:25;13.75;;;2.47;;
74371;SDS011;62885;51.374;6.170;2023-02-01T09:36:00;13.68;;;2.17;;
74371;SDS011;62885;51.374;6.170;2023-02-01T09:38:27;11.32;;;1.85;;
74371;SDS011;62885;51.374;6.170;2023-02-01T09:40:54;13.80;;;2.47;;
74371;SDS011;62885;51.374;6.170;2023-02-01T09:46:29;9.77;;;3.13;;
74371;SDS011;62885;51.374;6.170;2023-02-01T09:48:58;11.80;;;2.33;;
74371;SDS011;62885;51.374;6.170;2023-02-01T09:51:31;10.80;;;2.47;;
74371;SDS011;62885;51.374;6.170;2023-02-01T09:56:40;17.45;;;2.97;;
74371;SDS011;62885;51.374;6.170;2023-02-01T10:01:45;6.47;;;2.15;;
74371;SDS011;62885;51.374;6.170;2023-02-01T10:04:12;15.18;;;3.20;;
74371;SDS011;62885;51.374;6.170;2023-02-01T10:06:56;16.10;;;3.28;;
74371;SDS011;62885;51.374;6.170;2023-02-01T10:09:42;10.52;;;2.78;;
74371;SDS011;62885;51.374;6.170;2023-02-01T10:12:27;14.57;;;2.90;;
74371;SDS011;62885;51.374;6.170;2023-02-01T10:20:56;8.60;;;2.28;;
74371;SDS011;62885;51.374;6.170;2023-02-01T10:26:04;13.23;;;2.38;;
74371;SDS011;62885;51.374;6.170;2023-02-01T10:28:43;11.18;;;2.35;;
74371;SDS011;62885;51.374;6.170;2023-02-01T10:31:13;10.10;;;2.50;;
74371;SDS011;62885;51.374;6.170;2023-02-01T10:33:41;16.25;;;2.58;;
74371;SDS011;62885;51.374;6.170;2023-02-01T10:36:21;11.30;;;2.58;;
74371;SDS011;62885;51.374;6.170;2023-02-01T10:38:50;10.90;;;2.50;;
74371;SDS011;62885;51.374;6.170;2023-02-01T10:41:16;9.98;;;2.35;;
74371;SDS011;62885;51.374;6.170;2023-02-01T10:43:47;11.77;;;2.30;;
74371;SDS011;62885;51.374;6.170;2023-02-01T10:46:16;10.50;;;2.67;;
74371;SDS011;62885;51.374;6.170;2023-02-01T10:48:42;14.77;;;2.60;;
74371;SDS011;62885;51.374;6.170;2023-02-01T10:53:55;8.75;;;2.45;;
74371;SDS011;62885;51.374;6.170;2023-02-01T10:56:28;11.18;;;2.63;;
74371;SDS011;62885;51.374;6.170;2023-02-01T10:59:01;10.45;;;1.90;;
74371;SDS011;62885;51.374;6.170;2023-02-01T11:01:29;12.07;;;1.90;;
74371;SDS011;62885;51.374;6.170;2023-02-01T11:03:55;9.48;;;2.70;;
74371;SDS011;62885;51.374;6.170;2023-02-01T11:06:28;8.82;;;2.50;;
74371;SDS011;62885;51.374;6.170;2023-02-01T11:11:31;9.43;;;1.67;;
74371;SDS011;62885;51.374;6.170;2023-02-01T11:14:00;7.85;;;2.10;;
74371;SDS011;62885;51.374;6.170;2023-02-01T11:16:37;13.20;;;2.90;;
74371;SDS011;62885;51.374;6.170;2023-02-01T11:19:04;9.60;;;2.78;;
74371;SDS011;62885;51.374;6.170;2023-02-01T11:21:30;11.50;;;2.72;;
74371;SDS011;62885;51.374;6.170;2023-02-01T11:24:00;9.75;;;2.05;;
74371;SDS011;62885;51.374;6.170;2023-02-01T11:26:27;11.35;;;2.70;;
74371;SDS011;62885;51.374;6.170;2023-02-01T11:28:58;7.25;;;2.38;;
74371;SDS011;62885;51.374;6.170;2023-02-01T11:31:27;13.77;;;2.60;;
74371;SDS011;62885;51.374;6.170;2023-02-01T11:34:00;7.10;;;2.17;;
74371;SDS011;62885;51.374;6.170;2023-02-01T11:36:33;8.43;;;2.10;;
74371;SDS011;62885;51.374;6.170;2023-02-01T11:41:54;13.48;;;2.30;;
74371;SDS011;62885;51.374;6.170;2023-02-01T11:44:22;9.40;;;2.45;;
74371;SDS011;62885;51.374;6.170;2023-02-01T11:46:53;5.97;;;1.92;;
74371;SDS011;62885;51.374;6.170;2023-02-01T11:49:25;13.52;;;1.70;;
74371;SDS011;62885;51.374;6.170;2023-02-01T11:51:55;7.13;;;1.38;;
74371;SDS011;62885;51.374;6.170;2023-02-01T11:57:52;10.65;;;1.63;;
74371;SDS011;62885;51.374;6.170;2023-02-01T12:03:21;7.18;;;1.75;;
74371;SDS011;62885;51.374;6.170;2023-02-01T12:09:13;6.55;;;1.23;;
74371;SDS011;62885;51.374;6.170;2023-02-01T12:22:40;9.75;;;1.52;;
74371;SDS011;62885;51.374;6.170;2023-02-01T12:30:41;9.02;;;1.42;;
74371;SDS011;62885;51.374;6.170;2023-02-01T12:46:46;8.50;;;1.65;;
74371;SDS011;62885;51.374;6.170;2023-02-01T12:51:54;10.00;;;1.90;;
74371;SDS011;62885;51.374;6.170;2023-02-01T12:56:55;6.97;;;1.00;;
74371;SDS011;62885;51.374;6.170;2023-02-01T13:02:08;6.22;;;1.35;;
74371;SDS011;62885;51.374;6.170;2023-02-01T13:04:50;7.50;;;1.73;;
74371;SDS011;62885;51.374;6.170;2023-02-01T13:07:29;11.88;;;1.75;;
74371;SDS011;62885;51.374;6.170;2023-02-01T13:10:05;12.43;;;2.28;;
74371;SDS011;62885;51.374;6.170;2023-02-01T13:12:43;5.00;;;1.08;;
74371;SDS011;62885;51.374;6.170;2023-02-01T13:17:46;6.13;;;1.33;;
74371;SDS011;62885;51.374;6.170;2023-02-01T13:20:34;8.63;;;1.73;;
74371;SDS011;62885;51.374;6.170;2023-02-01T13:25:51;6.72;;;1.65;;
74371;SDS011;62885;51.374;6.170;2023-02-01T13:33:26;6.75;;;1.83;;
74371;SDS011;62885;51.374;6.170;2023-02-01T13:41:41;5.93;;;1.13;;
74371;SDS011;62885;51.374;6.170;2023-02-01T13:44:20;9.95;;;1.48;;
74371;SDS011;62885;51.374;6.170;2023-02-01T13:46:57;11.82;;;1.67;;
74371;SDS011;62885;51.374;6.170;2023-02-01T13:49:28;10.13;;;1.48;;
74371;SDS011;62885;51.374;6.170;2023-02-01T13:51:58;9.07;;;1.48;;
74371;SDS011;62885;51.374;6.170;2023-02-01T13:54:31;7.40;;;1.55;;
74371;SDS011;62885;51.374;6.170;2023-02-01T13:57:02;11.85;;;1.88;;
74371;SDS011;62885;51.374;6.170;2023-02-01T14:05:04;6.18;;;1.58;;
74371;SDS011;62885;51.374;6.170;2023-02-01T14:07:35;10.13;;;1.85;;
74371;SDS011;62885;51.374;6.170;2023-02-01T14:13:04;9.23;;;2.22;;
74371;SDS011;62885;51.374;6.170;2023-02-01T14:15:37;9.57;;;1.38;;
74371;SDS011;62885;51.374;6.170;2023-02-01T14:18:05;7.95;;;1.45;;
74371;SDS011;62885;51.374;6.170;2023-02-01T14:23:41;9.32;;;1.38;;
74371;SDS011;62885;51.374;6.170;2023-02-01T14:26:54;12.27;;;2.47;;
74371;SDS011;62885;51.374;6.170;2023-02-01T14:34:11;7.78;;;2.00;;
74371;SDS011;62885;51.374;6.170;2023-02-01T14:36:45;6.57;;;1.38;;
74371;SDS011;62885;51.374;6.170;2023-02-01T14:42:05;8.18;;;1.63;;
74371;SDS011;62885;51.374;6.170;2023-02-01T14:44:50;8.20;;;2.00;;
74371;SDS011;62885;51.374;6.170;2023-02-01T14:58:13;7.85;;;2.05;;
74371;SDS011;62885;51.374;6.170;2023-02-01T15:00:50;6.07;;;1.60;;
74371;SDS011;62885;51.374;6.170;2023-02-01T15:05:56;11.10;;;1.48;;
74371;SDS011;62885;51.374;6.170;2023-02-01T15:08:33;11.77;;;2.22;;
74371;SDS011;62885;51.374;6.170;2023-02-01T15:11:02;10.48;;;1.65;;
74371;SDS011;62885;51.374;6.170;2023-02-01T15:13:34;11.95;;;1.48;;
74371;SDS011;62885;51.374;6.170;2023-02-01T15:16:02;9.48;;;1.80;;
74371;SDS011;62885;51.374;6.170;2023-02-01T15:18:37;9.68;;;1.98;;
74371;SDS011;62885;51.374;6.170;2023-02-01T15:21:04;12.57;;;3.17;;
74371;SDS011;62885;51.374;6.170;2023-02-01T15:23:31;9.38;;;1.50;;
74371;SDS011;62885;51.374;6.170;2023-02-01T15:25:57;6.15;;;1.92;;
74371;SDS011;62885;51.374;6.170;2023-02-01T15:28:24;10.27;;;1.38;;
74371;SDS011;62885;51.374;6.170;2023-02-01T15:30:54;11.88;;;1.92;;
74371;SDS011;62885;51.374;6.170;2023-02-01T15:33:30;11.07;;;1.67;;
74371;SDS011;62885;51.374;6.170;2023-02-01T15:38:31;16.08;;;1.60;;
74371;SDS011;62885;51.374;6.170;2023-02-01T15:43:36;6.30;;;1.38;;
74371;SDS011;62885;51.374;6.170;2023-02-01T15:46:07;7.35;;;2.28;;
74371;SDS011;62885;51.374;6.170;2023-02-01T15:48:36;8.65;;;1.67;;
74371;SDS011;62885;51.374;6.170;2023-02-01T15:51:10;9.75;;;1.95;;
74371;SDS011;62885;51.374;6.170;2023-02-01T15:53:38;9.80;;;1.90;;
74371;SDS011;62885;51.374;6.170;2023-02-01T15:56:08;7.28;;;2.22;;
74371;SDS011;62885;51.374;6.170;2023-02-01T15:58:34;7.22;;;2.15;;
74371;SDS011;62885;51.374;6.170;2023-02-01T16:01:00;7.90;;;1.45;;
74371;SDS011;62885;51.374;6.170;2023-02-01T16:03:33;11.45;;;2.30;;
74371;SDS011;62885;51.374;6.170;2023-02-01T16:08:33;7.80;;;1.85;;
74371;SDS011;62885;51.374;6.170;2023-02-01T16:13:50;7.85;;;1.95;;
74371;SDS011;62885;51.374;6.170;2023-02-01T16:16:15;6.25;;;2.00;;
74371;SDS011;62885;51.374;6.170;2023-02-01T16:18:41;6.63;;;1.27;;
74371;SDS011;62885;51.374;6.170;2023-02-01T16:21:06;9.38;;;2.08;;
74371;SDS011;62885;51.374;6.170;2023-02-01T16:23:33;11.85;;;1.77;;
74371;SDS011;62885;51.374;6.170;2023-02-01T16:25:59;10.07;;;1.70;;
74371;SDS011;62885;51.374;6.170;2023-02-01T16:28:25;11.93;;;2.22;;
74371;SDS011;62885;51.374;6.170;2023-02-01T16:30:51;11.65;;;2.30;;
74371;SDS011;62885;51.374;6.170;2023-02-01T16:33:18;10.77;;;1.80;;
74371;SDS011;62885;51.374;6.170;2023-02-01T16:35:46;8.88;;;1.90;;
74371;SDS011;62885;51.374;6.170;2023-02-01T16:38:14;13.38;;;2.55;;
74371;SDS011;62885;51.374;6.170;2023-02-01T16:40:43;8.00;;;2.25;;
74371;SDS011;62885;51.374;6.170;2023-02-01T16:43:13;9.70;;;1.58;;
74371;SDS011;62885;51.374;6.170;2023-02-01T16:45:49;12.68;;;2.00;;
74371;SDS011;62885;51.374;6.170;2023-02-01T16:48:35;6.75;;;2.05;;
74371;SDS011;62885;51.374;6.170;2023-02-01T16:51:08;10.50;;;1.60;;
74371;SDS011;62885;51.374;6.170;2023-02-01T16:53:36;14.68;;;2.33;;
74371;SDS011;62885;51.374;6.170;2023-02-01T16:56:01;9.25;;;1.55;;
74371;SDS011;62885;51.374;6.170;2023-02-01T16:58:28;10.27;;;2.05;;
74371;SDS011;62885;51.374;6.170;2023-02-01T17:00:53;14.63;;;2.53;;
74371;SDS011;62885;51.374;6.170;2023-02-01T17:03:20;7.80;;;1.63;;
74371;SDS011;62885;51.374;6.170;2023-02-01T17:05:54;8.30;;;2.22;;
74371;SDS011;62885;51.374;6.170;2023-02-01T17:11:14;9.45;;;1.73;;
74371;SDS011;62885;51.374;6.170;2023-02-01T17:13:40;8.60;;;1.63;;
74371;SDS011;62885;51.374;6.170;2023-02-01T17:18:40;8.73;;;1.40;;
74371;SDS011;62885;51.374;6.170;2023-02-01T17:21:06;14.15;;;1.63;;
74371;SDS011;62885;51.374;6.170;2023-02-01T17:23:31;12.13;;;1.75;;
74371;SDS011;62885;51.374;6.170;2023-02-01T17:25:58;9.60;;;1.42;;
74371;SDS011;62885;51.374;6.170;2023-02-01T17:28:23;8.10;;;1.85;;
74371;SDS011;62885;51.374;6.170;2023-02-01T17:30:49;15.10;;;2.45;;
74371;SDS011;62885;51.374;6.170;2023-02-01T17:33:33;8.63;;;2.10;;
74371;SDS011;62885;51.374;6.170;2023-02-01T17:36:00;8.43;;;1.80;;
74371;SDS011;62885;51.374;6.170;2023-02-01T17:38:27;7.80;;;1.48;;
74371;SDS011;62885;51.374;6.170;2023-02-01T17:40:52;13.65;;;1.90;;
74371;SDS011;62885;51.374;6.170;2023-02-01T17:43:20;9.85;;;1.95;;
74371;SDS011;62885;51.374;6.170;2023-02-01T17:45:51;4.30;;;1.25;;
74371;SDS011;62885;51.374;6.170;2023-02-01T17:48:19;10.27;;;2.28;;